Virtual United States Air Force

 METAR AND TAF INFORMATION
METAR FOR KBAD
ADDS - METARS form results

(2129 UTC 29 March 2020)
Data provider http://aviationweather.gov/metar/data/
 
METAR text: KBAD 292056Z AUTO 36004KT 10SM FEW160 23/09 A3016 RMK AO2 RAB43E46RAB49E54 SLP216 P0000 60000 T02320088 55007
Conditions at: KBAD (BARKSDALE AFB , LA, US) observed 2056 UTC 29 March 2020
Temperature: 23.2°C (74°F)
Dewpoint: 8.8°C (48°F) [RH = 40%]
Pressure (altimeter): 30.16 inches Hg (1021.4 mb)
[Sea-level pressure: 1021.6 mb]
Winds: from the N (360 degrees) at 5 MPH (4 knots; 2.1 m/s)
Visibility: 10 or more miles (16+ km)
Ceiling: at least 12,000 feet AGL
Clouds: few clouds at 16000 feet AGL
Weather: automated observation with no human augmentation;
there may or may not be significant weather present at this time

METAR text: KBAD 292054Z AUTO 02004KT 10SM FEW160 23/08 A3016 RMK AO2 RAB43E46RAB49E54 SLP216
Conditions at: KBAD (BARKSDALE AFB , LA, US) observed 2054 UTC 29 March 2020
Temperature: 23.0°C (73°F)
Dewpoint: 8.0°C (46°F) [RH = 38%]
Pressure (altimeter): 30.16 inches Hg (1021.4 mb)
[Sea-level pressure: 1021.6 mb]
Winds: from the NNE (20 degrees) at 5 MPH (4 knots; 2.1 m/s)
Visibility: 10 or more miles (16+ km)
Ceiling: at least 12,000 feet AGL
Clouds: few clouds at 16000 feet AGL
Weather: automated observation with no human augmentation;
there may or may not be significant weather present at this time

METAR text: KBAD 292049Z AUTO 00000KT 10SM -RA FEW160 23/07 A3016 RMK AO2 RAB43E46RAB49 SLP216
Conditions at: KBAD (BARKSDALE AFB , LA, US) observed 2049 UTC 29 March 2020
Temperature: 23.0°C (73°F)
Dewpoint: 7.0°C (45°F) [RH = 36%]
Pressure (altimeter): 30.16 inches Hg (1021.4 mb)
[Sea-level pressure: 1021.6 mb]
Winds: calm
Visibility: 10 or more miles (16+ km)
Ceiling: at least 12,000 feet AGL
Clouds: few clouds at 16000 feet AGL
Weather: -RA  (light rain)

METAR text: KBAD 292046Z AUTO 00000KT 10SM CLR 23/07 A3015 RMK AO2 RAB43E46 SLP212
Conditions at: KBAD (BARKSDALE AFB , LA, US) observed 2046 UTC 29 March 2020
Temperature: 23.0°C (73°F)
Dewpoint: 7.0°C (45°F) [RH = 36%]
Pressure (altimeter): 30.15 inches Hg (1021.1 mb)
[Sea-level pressure: 1021.2 mb]
Winds: calm
Visibility: 10 or more miles (16+ km)
Ceiling: at least 12,000 feet AGL
Clouds: sky clear below 12,000 feet AGL
Weather: automated observation with no human augmentation;
there may or may not be significant weather present at this time

METAR text: KBAD 292043Z AUTO 00000KT 10SM -RA FEW210 23/08 A3015 RMK AO2 RAB43 SLP212
Conditions at: KBAD (BARKSDALE AFB , LA, US) observed 2043 UTC 29 March 2020
Temperature: 23.0°C (73°F)
Dewpoint: 8.0°C (46°F) [RH = 38%]
Pressure (altimeter): 30.15 inches Hg (1021.1 mb)
[Sea-level pressure: 1021.2 mb]
Winds: calm
Visibility: 10 or more miles (16+ km)
Ceiling: at least 12,000 feet AGL
Clouds: few clouds at 21000 feet AGL
Weather: -RA  (light rain)

 AIRPORT MAP

 RUNWAY INFORMATION
Runway 15 Runway length 11756 ft Runway width 300 ft
Runway elevation 164 ft Runway displaced threshold 0 ft Runway heading 151
Runway 33 Runway length 11756 ft Runway width 300 ft
Runway elevation 162 ft Runway displaced threshold 0 ft Runway heading 331

 AIRPORT FREQUENCIES
Type A/D Name SHREVEPORT Frequency 119.9 MHZ
Type ATIS Name ATIS Frequency 37.58 MHZ
Type GND Name GND Frequency 121.8 MHZ
Type PMSV Name PMSV METRO Frequency 37.362 MHZ
Type POST Name COMD POST Frequency 31.1 MHZ
Type PTD Name PTD Frequency 37.22 MHZ
Type TWR Name TWR Frequency 128.25 MHZ

 AIRPORT NEAR NAVIGATION AIDS


Neither the Department of the Air Force, nor any other component of the Department of Defense or Federal Government has approved, endorsed, or authorized this promotion, activity, or organization. Virtual United States Air Force organization is in no way affiliated with the Department of Defense, Department of the Air Force, or any other federal or government entity. Virtual United States Air Force is a group of flight simulation enthusiasts with the common interest of promoting enjoyment and cameraderie through the simulation of military operations and procedures utilizing several flight simulation platforms.

Copyright © vUSAF, LLC // 2018 All Rights Reserved